Time;durP1;ratioP1;P1;durP2;ratioP2;P2;SDS_P1;SDS_P2;PMS_P1;PMS_P2;Temp;Humidity;BMP_temperature;BMP_pressure;BME280_temperature;BME280_humidity;BME280_pressure;Samples;Min_cycle;Max_cycle;Signal;HPM_P1;HPM_P2
2023/08/14 00:01:28;;;;;;;5.83;3.63;;;;;;;;;;5042666;28;20464;-80
2023/08/14 00:03:54;;;;;;;4.73;4.37;;;;;;;;;;5042735;28;20840;-80
2023/08/14 00:06:20;;;;;;;5.43;3.97;;;;;;;;;;5039057;28;20848;-80
2023/08/14 00:08:47;;;;;;;6.53;3.50;;;;;;;;;;5041534;28;20487;-80
2023/08/14 00:11:13;;;;;;;9.07;4.50;;;;;;;;;;5040980;28;20480;-80
2023/08/14 00:13:51;;;;;;;3.97;3.57;;;;;;;;;;5040819;28;21017;-80
2023/08/14 00:16:17;;;;;;;4.23;3.80;;;;;;;;;;5045075;28;20482;-80
2023/08/14 00:18:45;;;;;;;4.30;3.90;;;;;;;;;;5041851;28;20922;-80
2023/08/14 00:21:12;;;;;;;4.40;4.00;;;;;;;;;;5043628;28;20471;-80
2023/08/14 00:23:38;;;;;;;4.93;3.80;;;;;;;;;;5040503;28;20476;-80
2023/08/14 00:26:05;;;;;;;7.47;4.10;;;;;;;;;;5041862;28;20967;-80
2023/08/14 00:28:31;;;;;;;5.33;4.13;;;;;;;;;;5044955;28;20484;-80
2023/08/14 00:30:59;;;;;;;7.60;4.63;;;;;;;;;;5042714;28;21013;-80
2023/08/14 00:33:25;;;;;;;9.50;5.03;;;;;;;;;;5044378;28;20476;-80
2023/08/14 00:35:52;;;;;;;5.53;4.63;;;;;;;;;;5046903;28;20480;-80
2023/08/14 00:38:18;;;;;;;7.03;4.57;;;;;;;;;;5042946;28;20459;-80
2023/08/14 00:40:45;;;;;;;5.13;4.60;;;;;;;;;;5044292;28;20480;-80
2023/08/14 00:43:11;;;;;;;5.50;4.50;;;;;;;;;;5047174;28;20477;-80
2023/08/14 00:45:37;;;;;;;4.77;4.07;;;;;;;;;;5045628;28;21017;-80
2023/08/14 00:48:07;;;;;;;5.53;3.83;;;;;;;;;;5045469;28;20476;-80
2023/08/14 00:50:33;;;;;;;5.60;4.57;;;;;;;;;;5044556;28;20990;-80
2023/08/14 00:53:02;;;;;;;7.93;4.20;;;;;;;;;;5045234;28;20471;-80
2023/08/14 00:55:29;;;;;;;4.30;3.90;;;;;;;;;;5044310;28;20888;-80
2023/08/14 00:57:55;;;;;;;4.77;3.90;;;;;;;;;;5046071;28;21054;-80
2023/08/14 01:00:22;;;;;;;4.87;3.97;;;;;;;;;;5047026;28;21027;-80
2023/08/14 01:02:52;;;;;;;4.30;3.93;;;;;;;;;;5045806;28;20479;-80
2023/08/14 01:05:20;;;;;;;6.70;4.20;;;;;;;;;;5043376;28;20479;-80
2023/08/14 01:07:46;;;;;;;6.13;4.80;;;;;;;;;;5044133;28;21005;-80
2023/08/14 01:10:13;;;;;;;6.30;4.07;;;;;;;;;;5046987;28;20471;-80
2023/08/14 01:12:43;;;;;;;4.77;4.20;;;;;;;;;;5047554;28;20483;-80
2023/08/14 01:15:13;;;;;;;5.73;3.90;;;;;;;;;;5045568;28;20467;-80
2023/08/14 01:17:40;;;;;;;4.43;4.00;;;;;;;;;;5045932;28;20544;-80
2023/08/14 01:20:09;;;;;;;3.73;3.30;;;;;;;;;;5047578;28;20476;-80
2023/08/14 01:22:41;;;;;;;5.27;3.50;;;;;;;;;;5044131;28;20547;-80
2023/08/14 01:25:28;;;;;;;9.70;4.10;;;;;;;;;;5044533;28;20483;-80
2023/08/14 01:27:56;;;;;;;4.63;4.23;;;;;;;;;;5042347;28;21018;-80
2023/08/14 01:30:24;;;;;;;4.80;3.90;;;;;;;;;;5043753;28;20960;-80
2023/08/14 01:32:50;;;;;;;4.50;4.10;;;;;;;;;;5046227;28;21182;-80
2023/08/14 01:35:17;;;;;;;5.53;3.80;;;;;;;;;;5046419;28;20913;-80
2023/08/14 01:37:47;;;;;;;5.73;3.00;;;;;;;;;;5046898;28;20468;-80
2023/08/14 01:40:18;;;;;;;3.40;3.10;;;;;;;;;;5042924;28;20521;-80
2023/08/14 01:42:46;;;;;;;3.17;2.97;;;;;;;;;;5043157;28;20483;-80
2023/08/14 01:45:19;;;;;;;4.63;4.17;;;;;;;;;;5044423;28;20491;-80
2023/08/14 01:47:46;;;;;;;5.10;3.63;;;;;;;;;;5045160;28;20461;-80
2023/08/14 01:50:14;;;;;;;4.53;4.07;;;;;;;;;;5042014;28;21136;-80
2023/08/14 01:52:40;;;;;;;6.07;4.13;;;;;;;;;;5044729;28;20818;-80
2023/08/14 01:55:07;;;;;;;5.30;4.00;;;;;;;;;;5042538;28;21006;-80
2023/08/14 01:57:34;;;;;;;6.10;5.00;;;;;;;;;;5042709;28;20471;-80
2023/08/14 02:00:01;;;;;;;8.33;5.00;;;;;;;;;;5044411;28;20875;-80
2023/08/14 02:02:28;;;;;;;6.23;5.03;;;;;;;;;;5045428;28;20515;-80
2023/08/14 02:04:55;;;;;;;4.73;4.30;;;;;;;;;;5045028;28;20862;-80
2023/08/14 02:07:21;;;;;;;6.87;3.63;;;;;;;;;;5043851;28;20444;-80
2023/08/14 02:09:48;;;;;;;5.10;4.63;;;;;;;;;;5043510;28;20519;-81
2023/08/14 02:12:14;;;;;;;5.90;4.70;;;;;;;;;;5046033;28;20483;-80
2023/08/14 02:14:41;;;;;;;8.63;5.47;;;;;;;;;;5044564;28;20479;-81
2023/08/14 02:17:08;;;;;;;4.40;4.00;;;;;;;;;;5044149;28;20465;-80
2023/08/14 02:19:35;;;;;;;6.83;4.00;;;;;;;;;;5043442;28;20452;-80
2023/08/14 02:22:02;;;;;;;5.83;3.50;;;;;;;;;;5040783;28;20480;-80
2023/08/14 02:24:28;;;;;;;4.83;4.20;;;;;;;;;;5043965;28;20449;-80
2023/08/14 02:26:55;;;;;;;5.73;4.03;;;;;;;;;;5043241;28;21044;-80
2023/08/14 02:29:21;;;;;;;6.50;3.73;;;;;;;;;;5043736;28;20490;-80
2023/08/14 02:31:50;;;;;;;5.13;3.60;;;;;;;;;;5044404;28;20481;-80
2023/08/14 02:34:32;;;;;;;9.27;3.93;;;;;;;;;;5044680;28;20461;-80
2023/08/14 02:37:00;;;;;;;4.57;3.30;;;;;;;;;;5046436;28;20498;-80
2023/08/14 02:39:27;;;;;;;3.87;3.43;;;;;;;;;;5043447;28;20444;-80
2023/08/14 02:41:53;;;;;;;4.27;3.90;;;;;;;;;;5043406;28;20484;-80
2023/08/14 02:44:19;;;;;;;6.23;4.83;;;;;;;;;;5046489;28;20459;-80
2023/08/14 02:46:45;;;;;;;7.73;4.20;;;;;;;;;;5044946;28;20484;-80
2023/08/14 02:49:11;;;;;;;6.30;4.33;;;;;;;;;;5042741;28;20475;-80
2023/08/14 02:51:37;;;;;;;4.07;3.63;;;;;;;;;;5040879;28;21115;-80
2023/08/14 02:54:07;;;;;;;8.73;3.77;;;;;;;;;;5043298;28;20213;-80
2023/08/14 02:56:33;;;;;;;12.20;3.67;;;;;;;;;;5043434;28;20472;-80
2023/08/14 02:59:00;;;;;;;6.30;3.50;;;;;;;;;;5042452;28;20464;-80
2023/08/14 03:01:26;;;;;;;3.67;3.40;;;;;;;;;;5044638;28;20483;-80
2023/08/14 03:03:53;;;;;;;4.17;3.80;;;;;;;;;;5044073;28;20468;-80
2023/08/14 03:06:21;;;;;;;6.53;3.50;;;;;;;;;;5041069;28;20484;-80
2023/08/14 03:08:49;;;;;;;4.10;3.70;;;;;;;;;;5043489;28;20485;-79
2023/08/14 03:11:17;;;;;;;3.70;3.40;;;;;;;;;;5043272;28;20479;-80
2023/08/14 03:13:43;;;;;;;4.00;3.37;;;;;;;;;;5043472;28;20460;-80
2023/08/14 03:16:09;;;;;;;10.00;4.30;;;;;;;;;;5044719;28;20491;-81
2023/08/14 03:18:36;;;;;;;7.53;4.40;;;;;;;;;;5042745;28;20458;-80
2023/08/14 03:21:02;;;;;;;3.73;3.40;;;;;;;;;;5043134;28;20472;-80
2023/08/14 03:23:29;;;;;;;4.27;3.80;;;;;;;;;;5041911;28;21128;-81
2023/08/14 03:25:55;;;;;;;5.90;4.07;;;;;;;;;;5043805;28;20481;-80
2023/08/14 03:28:23;;;;;;;4.23;3.53;;;;;;;;;;5042943;28;20459;-80
2023/08/14 03:30:50;;;;;;;4.10;3.70;;;;;;;;;;5043477;28;20468;-80
2023/08/14 03:33:16;;;;;;;5.57;2.97;;;;;;;;;;5045314;28;20480;-80
2023/08/14 03:35:42;;;;;;;4.53;3.63;;;;;;;;;;5041137;28;20992;-80
2023/08/14 03:38:09;;;;;;;3.97;3.33;;;;;;;;;;5043145;28;20463;-80
2023/08/14 03:40:35;;;;;;;3.90;3.60;;;;;;;;;;5044261;28;20486;-80
2023/08/14 03:43:02;;;;;;;6.30;3.80;;;;;;;;;;5045866;28;20491;-80
2023/08/14 03:45:29;;;;;;;3.57;3.27;;;;;;;;;;5041865;28;20474;-80
2023/08/14 03:47:56;;;;;;;5.87;3.70;;;;;;;;;;5041665;28;20427;-80
2023/08/14 03:50:23;;;;;;;3.80;3.50;;;;;;;;;;5042896;28;20484;-80
2023/08/14 03:52:49;;;;;;;3.70;3.10;;;;;;;;;;5042710;28;20476;-80
2023/08/14 03:55:15;;;;;;;5.23;3.63;;;;;;;;;;5039964;28;20476;-80
2023/08/14 03:57:42;;;;;;;3.00;2.60;;;;;;;;;;5042174;28;20436;-80
2023/08/14 04:00:09;;;;;;;4.17;3.60;;;;;;;;;;5043046;28;20865;-80
2023/08/14 04:02:36;;;;;;;4.27;3.40;;;;;;;;;;5041314;28;20867;-80
2023/08/14 04:05:03;;;;;;;4.10;3.10;;;;;;;;;;5041897;28;20434;-80
2023/08/14 04:07:29;;;;;;;4.53;4.13;;;;;;;;;;5046702;28;20962;-80
2023/08/14 04:09:55;;;;;;;5.97;3.80;;;;;;;;;;5045136;28;20454;-80
2023/08/14 04:12:22;;;;;;;4.33;3.53;;;;;;;;;;5044508;28;20484;-80
2023/08/14 04:14:49;;;;;;;6.23;4.40;;;;;;;;;;5049143;28;20865;-80
2023/08/14 04:17:16;;;;;;;5.53;3.90;;;;;;;;;;5046040;28;20441;-80
2023/08/14 04:19:43;;;;;;;4.10;3.20;;;;;;;;;;5044074;28;20506;-81
2023/08/14 04:22:10;;;;;;;6.80;4.17;;;;;;;;;;5046698;28;20479;-80
2023/08/14 04:24:37;;;;;;;5.40;3.33;;;;;;;;;;5046187;28;20547;-80
2023/08/14 04:27:04;;;;;;;6.10;3.57;;;;;;;;;;5046449;28;20529;-80
2023/08/14 04:29:30;;;;;;;5.00;4.00;;;;;;;;;;5047097;28;20491;-80
2023/08/14 04:31:56;;;;;;;3.40;3.20;;;;;;;;;;5048531;28;20480;-80
2023/08/14 04:34:23;;;;;;;4.23;3.83;;;;;;;;;;5048025;28;20468;-80
2023/08/14 04:36:50;;;;;;;4.80;4.40;;;;;;;;;;5044106;28;20476;-80
2023/08/14 04:39:17;;;;;;;5.70;4.00;;;;;;;;;;5046480;28;20463;-80
2023/08/14 04:41:44;;;;;;;5.30;4.63;;;;;;;;;;5046377;28;20562;-80
2023/08/14 04:44:10;;;;;;;4.83;4.27;;;;;;;;;;5045741;28;20464;-80
2023/08/14 04:46:37;;;;;;;3.60;3.33;;;;;;;;;;5046596;28;20533;-80
2023/08/14 04:49:04;;;;;;;8.70;4.23;;;;;;;;;;5046549;28;20489;-80
2023/08/14 04:51:30;;;;;;;4.00;3.70;;;;;;;;;;5046100;28;20480;-80
2023/08/14 04:53:59;;;;;;;5.00;4.50;;;;;;;;;;5041618;28;20438;-80
2023/08/14 04:56:26;;;;;;;4.77;4.20;;;;;;;;;;5045677;28;20853;-81
2023/08/14 04:58:53;;;;;;;5.00;4.50;;;;;;;;;;5044686;28;20455;-80
2023/08/14 05:01:20;;;;;;;6.17;4.37;;;;;;;;;;5046420;28;20458;-80
2023/08/14 05:03:46;;;;;;;4.03;3.47;;;;;;;;;;5047944;28;22117;-80
2023/08/14 05:06:12;;;;;;;4.03;3.63;;;;;;;;;;5043393;28;20488;-80
2023/08/14 05:08:39;;;;;;;5.07;3.40;;;;;;;;;;5047461;28;20460;-80
2023/08/14 05:11:06;;;;;;;3.97;3.67;;;;;;;;;;5046830;28;20476;-80
2023/08/14 05:13:33;;;;;;;7.30;4.00;;;;;;;;;;5049717;28;21009;-80
2023/08/14 05:15:59;;;;;;;5.47;4.33;;;;;;;;;;5046177;28;20546;-80
2023/08/14 05:18:26;;;;;;;4.03;3.63;;;;;;;;;;5048401;28;20460;-80
2023/08/14 05:20:53;;;;;;;4.90;4.50;;;;;;;;;;5041098;28;20451;-80
2023/08/14 05:23:19;;;;;;;6.23;4.57;;;;;;;;;;5047421;28;20458;-81
2023/08/14 05:25:46;;;;;;;7.83;5.17;;;;;;;;;;5047162;28;20476;-80
2023/08/14 05:28:14;;;;;;;4.77;4.37;;;;;;;;;;5046050;28;20461;-80
2023/08/14 05:30:42;;;;;;;6.57;5.50;;;;;;;;;;5043656;28;20487;-80
2023/08/14 05:33:08;;;;;;;6.20;5.67;;;;;;;;;;5042566;28;20502;-80
2023/08/14 05:35:35;;;;;;;6.93;5.50;;;;;;;;;;5043873;28;20472;-80
2023/08/14 05:38:01;;;;;;;6.23;5.60;;;;;;;;;;5044259;28;20457;-79
2023/08/14 05:40:27;;;;;;;8.63;6.30;;;;;;;;;;5045443;28;20468;-80
2023/08/14 05:43:03;;;;;;;7.20;6.47;;;;;;;;;;5044607;28;20483;-80
2023/08/14 05:45:31;;;;;;;10.83;6.97;;;;;;;;;;5044493;28;20484;-80
2023/08/14 05:47:58;;;;;;;12.53;7.57;;;;;;;;;;5046689;28;20997;-80
2023/08/14 05:50:25;;;;;;;9.30;6.70;;;;;;;;;;5043448;28;20477;-80
2023/08/14 05:52:51;;;;;;;8.27;7.47;;;;;;;;;;5043651;28;20479;-80
2023/08/14 05:55:18;;;;;;;10.10;7.80;;;;;;;;;;5043519;28;20491;-80
2023/08/14 05:57:44;;;;;;;10.17;7.20;;;;;;;;;;5046688;28;20847;-80
2023/08/14 06:00:11;;;;;;;8.10;6.40;;;;;;;;;;5044053;28;20463;-80
2023/08/14 06:02:39;;;;;;;8.20;7.27;;;;;;;;;;5046561;28;20557;-80
2023/08/14 06:05:06;;;;;;;11.67;8.57;;;;;;;;;;5043417;28;20469;-80
2023/08/14 06:07:32;;;;;;;10.73;8.50;;;;;;;;;;5045430;28;20460;-80
2023/08/14 06:09:58;;;;;;;9.30;6.80;;;;;;;;;;5045467;28;20555;-81
2023/08/14 06:12:25;;;;;;;14.40;11.43;;;;;;;;;;5043588;28;20472;-80
2023/08/14 06:14:51;;;;;;;13.57;10.63;;;;;;;;;;5044489;28;20448;-81
2023/08/14 06:17:17;;;;;;;12.67;9.60;;;;;;;;;;5045830;28;20460;-80
2023/08/14 06:19:45;;;;;;;12.23;8.90;;;;;;;;;;5043489;28;20454;-81
2023/08/14 06:22:12;;;;;;;9.07;8.17;;;;;;;;;;5043880;28;20982;-80
2023/08/14 06:24:38;;;;;;;13.90;8.57;;;;;;;;;;5044960;28;20447;-80
2023/08/14 06:27:05;;;;;;;9.73;7.10;;;;;;;;;;5041206;28;20480;-81
2023/08/14 06:29:32;;;;;;;9.23;8.20;;;;;;;;;;5038603;28;20563;-80
2023/08/14 06:31:58;;;;;;;8.53;7.13;;;;;;;;;;5043842;28;20834;-80
2023/08/14 06:34:25;;;;;;;7.57;6.97;;;;;;;;;;5043542;28;20464;-81
2023/08/14 06:36:52;;;;;;;10.47;6.63;;;;;;;;;;5043826;28;20469;-80
2023/08/14 06:39:19;;;;;;;6.90;5.43;;;;;;;;;;5045039;28;20455;-80
2023/08/14 06:41:45;;;;;;;5.90;5.40;;;;;;;;;;5041486;28;20484;-80
2023/08/14 06:44:12;;;;;;;10.80;5.97;;;;;;;;;;5045215;28;20435;-80
2023/08/14 06:46:38;;;;;;;6.63;4.30;;;;;;;;;;5042043;28;20478;-80
2023/08/14 06:49:05;;;;;;;14.20;4.50;;;;;;;;;;5042696;28;20464;-80
2023/08/14 06:51:32;;;;;;;8.00;3.70;;;;;;;;;;5044174;28;20477;-80
2023/08/14 06:54:00;;;;;;;5.10;3.70;;;;;;;;;;5048329;28;20445;-80
2023/08/14 06:56:27;;;;;;;4.77;3.50;;;;;;;;;;5045218;28;20479;-80
2023/08/14 06:58:53;;;;;;;4.03;2.47;;;;;;;;;;5046444;28;20534;-80
2023/08/14 07:01:20;;;;;;;2.83;1.70;;;;;;;;;;5045630;28;20477;-80
2023/08/14 07:03:46;;;;;;;4.40;2.30;;;;;;;;;;5043642;28;20950;-80
2023/08/14 07:06:13;;;;;;;3.03;2.73;;;;;;;;;;5042415;28;20482;-80
2023/08/14 07:08:39;;;;;;;4.43;2.30;;;;;;;;;;5041070;28;20440;-80
2023/08/14 07:11:07;;;;;;;3.10;2.40;;;;;;;;;;5042116;28;20484;-80
2023/08/14 07:13:33;;;;;;;5.87;2.00;;;;;;;;;;5041118;28;20464;-80
2023/08/14 07:16:00;;;;;;;3.00;2.30;;;;;;;;;;5046398;28;20471;-80
2023/08/14 07:18:26;;;;;;;2.67;2.30;;;;;;;;;;5044163;28;20460;-80
2023/08/14 07:20:53;;;;;;;2.90;2.20;;;;;;;;;;5041635;28;20973;-81
2023/08/14 07:23:20;;;;;;;3.33;2.00;;;;;;;;;;5042182;28;20491;-80
2023/08/14 07:25:47;;;;;;;6.43;2.87;;;;;;;;;;5041995;28;20479;-80
2023/08/14 07:28:16;;;;;;;5.47;1.70;;;;;;;;;;5040792;28;20460;-81
2023/08/14 07:30:42;;;;;;;3.43;2.20;;;;;;;;;;5038036;28;20530;-81
2023/08/14 07:33:10;;;;;;;4.47;2.10;;;;;;;;;;5042819;28;20460;-80
2023/08/14 07:35:36;;;;;;;5.20;2.00;;;;;;;;;;5039240;28;20891;-80
2023/08/14 07:38:03;;;;;;;4.77;2.00;;;;;;;;;;5043973;28;20961;-80
2023/08/14 07:40:29;;;;;;;4.10;2.10;;;;;;;;;;5042256;28;20479;-81
2023/08/14 07:42:56;;;;;;;2.93;2.60;;;;;;;;;;5043027;28;20975;-80
2023/08/14 07:45:24;;;;;;;3.73;2.10;;;;;;;;;;5043383;28;20468;-80
2023/08/14 07:47:52;;;;;;;4.10;1.80;;;;;;;;;;5039543;28;20539;-81
2023/08/14 07:50:18;;;;;;;6.60;2.03;;;;;;;;;;5045351;28;20564;-81
2023/08/14 07:52:45;;;;;;;2.60;2.00;;;;;;;;;;5044395;28;20495;-80
2023/08/14 07:55:11;;;;;;;4.17;2.33;;;;;;;;;;5045445;28;20491;-80
2023/08/14 07:57:38;;;;;;;3.80;2.83;;;;;;;;;;5043655;28;20469;-80
2023/08/14 08:00:08;;;;;;;2.60;2.40;;;;;;;;;;5041966;28;20850;-81
2023/08/14 08:02:36;;;;;;;3.03;2.00;;;;;;;;;;5043075;28;20479;-80
2023/08/14 08:05:04;;;;;;;3.00;1.40;;;;;;;;;;5041750;28;20455;-80
2023/08/14 08:07:30;;;;;;;2.50;1.80;;;;;;;;;;5044551;28;20452;-80
2023/08/14 08:09:57;;;;;;;3.10;2.17;;;;;;;;;;5044811;28;20945;-80
2023/08/14 08:12:23;;;;;;;7.13;2.70;;;;;;;;;;5041803;28;20892;-81
2023/08/14 08:14:51;;;;;;;4.50;2.27;;;;;;;;;;5045058;28;20483;-81
2023/08/14 08:17:17;;;;;;;3.67;2.17;;;;;;;;;;5048362;28;20466;-81
2023/08/14 08:19:46;;;;;;;9.83;2.50;;;;;;;;;;5045451;28;20441;-81
2023/08/14 08:22:12;;;;;;;4.60;2.80;;;;;;;;;;5043783;28;20472;-80
2023/08/14 08:24:39;;;;;;;3.00;2.20;;;;;;;;;;5041739;28;20444;-81
2023/08/14 08:27:05;;;;;;;2.90;2.43;;;;;;;;;;5042515;28;20978;-80
2023/08/14 08:29:31;;;;;;;2.90;1.97;;;;;;;;;;5043056;28;20479;-80
2023/08/14 08:31:58;;;;;;;5.43;2.50;;;;;;;;;;5037661;28;20476;-80
2023/08/14 08:34:24;;;;;;;2.50;1.73;;;;;;;;;;5041742;28;20440;-80
2023/08/14 08:36:52;;;;;;;3.63;1.83;;;;;;;;;;5039240;28;20486;-81
2023/08/14 08:39:18;;;;;;;2.40;1.80;;;;;;;;;;5042925;28;20451;-80
2023/08/14 08:41:45;;;;;;;3.30;2.20;;;;;;;;;;5040096;28;20981;-80
2023/08/14 08:44:16;;;;;;;4.17;2.27;;;;;;;;;;5043989;28;20455;-81
2023/08/14 08:46:43;;;;;;;2.30;2.07;;;;;;;;;;5041807;28;20853;-82
2023/08/14 08:49:10;;;;;;;5.57;2.30;;;;;;;;;;5039784;28;20444;-81
2023/08/14 08:51:38;;;;;;;4.77;2.30;;;;;;;;;;5042081;28;20475;-81
2023/08/14 08:54:06;;;;;;;2.93;1.87;;;;;;;;;;5047163;28;20437;-81
2023/08/14 08:56:33;;;;;;;2.70;2.23;;;;;;;;;;5045062;28;20475;-81
2023/08/14 08:59:00;;;;;;;2.90;2.03;;;;;;;;;;5047901;28;20454;-80
2023/08/14 09:01:26;;;;;;;3.87;1.83;;;;;;;;;;5046005;28;20483;-80
2023/08/14 09:03:53;;;;;;;2.60;2.10;;;;;;;;;;5048422;28;20459;-81
2023/08/14 09:06:19;;;;;;;6.13;2.33;;;;;;;;;;5045628;28;20994;-81
2023/08/14 09:08:45;;;;;;;3.83;2.10;;;;;;;;;;5044766;28;20953;-81
2023/08/14 09:11:13;;;;;;;5.37;2.17;;;;;;;;;;5046572;28;20473;-81
2023/08/14 09:13:39;;;;;;;3.83;2.40;;;;;;;;;;5046975;28;20483;-81
2023/08/14 09:16:06;;;;;;;3.43;2.10;;;;;;;;;;5043798;28;20849;-81
2023/08/14 09:18:33;;;;;;;2.97;2.30;;;;;;;;;;5044663;28;20464;-81
2023/08/14 09:20:59;;;;;;;5.80;2.63;;;;;;;;;;5045859;28;20468;-80
2023/08/14 09:23:26;;;;;;;3.50;2.53;;;;;;;;;;5043045;28;20544;-81
2023/08/14 09:25:54;;;;;;;5.23;2.80;;;;;;;;;;5043642;28;20455;-80
2023/08/14 09:28:22;;;;;;;8.83;3.37;;;;;;;;;;5044805;28;20468;-80
2023/08/14 09:30:48;;;;;;;3.97;3.03;;;;;;;;;;5043925;28;20471;-81
2023/08/14 09:33:15;;;;;;;4.67;2.67;;;;;;;;;;5045653;28;20709;-81
2023/08/14 09:35:41;;;;;;;3.97;2.90;;;;;;;;;;5044785;28;20472;-80
2023/08/14 09:38:08;;;;;;;6.27;2.67;;;;;;;;;;5047809;28;20460;-81
2023/08/14 09:40:34;;;;;;;3.67;2.70;;;;;;;;;;5046916;28;20468;-81
2023/08/14 09:43:01;;;;;;;5.67;3.47;;;;;;;;;;5048829;28;20464;-81
2023/08/14 09:45:34;;;;;;;4.20;3.07;;;;;;;;;;5046285;28;20469;-80
2023/08/14 09:48:01;;;;;;;4.90;3.50;;;;;;;;;;5043099;28;20856;-81
2023/08/14 09:50:28;;;;;;;4.07;3.30;;;;;;;;;;5045820;28;20468;-81
2023/08/14 09:52:56;;;;;;;4.80;2.83;;;;;;;;;;5046077;28;20507;-81
2023/08/14 09:55:23;;;;;;;4.17;2.70;;;;;;;;;;5044608;28;20491;-81
2023/08/14 09:57:49;;;;;;;5.67;3.47;;;;;;;;;;5048237;28;20444;-80
2023/08/14 10:00:16;;;;;;;3.93;2.70;;;;;;;;;;5047129;28;20551;-80
2023/08/14 10:02:45;;;;;;;10.57;3.77;;;;;;;;;;5047664;28;20475;-81
2023/08/14 10:05:11;;;;;;;4.73;3.07;;;;;;;;;;5041945;28;20476;-81
2023/08/14 10:07:39;;;;;;;4.10;2.97;;;;;;;;;;5043193;28;20436;-81
2023/08/14 10:10:07;;;;;;;8.03;3.87;;;;;;;;;;5042818;28;20534;-81
2023/08/14 10:12:37;;;;;;;5.33;3.50;;;;;;;;;;5045132;28;20491;-81
2023/08/14 10:15:08;;;;;;;10.77;3.50;;;;;;;;;;5043958;28;20514;-82
2023/08/14 10:17:39;;;;;;;8.20;3.43;;;;;;;;;;5025704;28;20448;-80
2023/08/14 10:20:10;;;;;;;6.77;3.03;;;;;;;;;;5043726;28;20472;-81
2023/08/14 10:22:37;;;;;;;8.90;3.87;;;;;;;;;;5043613;28;20992;-81
2023/08/14 10:25:04;;;;;;;5.03;3.43;;;;;;;;;;5045357;28;20462;-81
2023/08/14 10:27:31;;;;;;;6.57;4.50;;;;;;;;;;5042832;28;20486;-81
2023/08/14 10:29:58;;;;;;;5.00;3.93;;;;;;;;;;5038543;28;20525;-80
2023/08/14 10:32:25;;;;;;;6.77;3.60;;;;;;;;;;5045046;28;20891;-81
2023/08/14 10:34:51;;;;;;;4.70;3.10;;;;;;;;;;5046837;28;20462;-81
2023/08/14 10:37:26;;;;;;;6.50;3.60;;;;;;;;;;5045186;28;20547;-81
2023/08/14 10:39:57;;;;;;;6.57;3.80;;;;;;;;;;5046042;28;20463;-81
2023/08/14 10:42:24;;;;;;;4.80;3.47;;;;;;;;;;5044241;28;20856;-81
2023/08/14 10:44:50;;;;;;;5.10;3.43;;;;;;;;;;5042770;28;20970;-81
2023/08/14 10:47:17;;;;;;;6.70;4.20;;;;;;;;;;5043444;28;20449;-81
2023/08/14 10:49:44;;;;;;;9.70;4.17;;;;;;;;;;5042768;28;20557;-81
2023/08/14 10:52:13;;;;;;;7.93;3.20;;;;;;;;;;5043067;28;20491;-81
2023/08/14 10:54:41;;;;;;;5.90;3.47;;;;;;;;;;5042566;28;20451;-81
2023/08/14 10:57:10;;;;;;;4.53;2.80;;;;;;;;;;5045892;28;20467;-81
2023/08/14 10:59:36;;;;;;;2.97;2.70;;;;;;;;;;5044293;28;20448;-80
2023/08/14 11:02:07;;;;;;;5.47;2.80;;;;;;;;;;5041154;28;21013;-81
2023/08/14 11:04:36;;;;;;;8.97;3.43;;;;;;;;;;5044064;28;20460;-81
2023/08/14 11:07:06;;;;;;;3.90;3.20;;;;;;;;;;5041712;28;20625;-81
2023/08/14 11:09:34;;;;;;;7.90;3.10;;;;;;;;;;5040917;28;20453;-81
2023/08/14 11:12:06;;;;;;;4.73;2.60;;;;;;;;;;5042655;28;20480;-81
2023/08/14 11:14:36;;;;;;;5.47;2.87;;;;;;;;;;5041250;28;20453;-81
2023/08/14 11:17:03;;;;;;;4.93;2.73;;;;;;;;;;5044060;28;20472;-81
2023/08/14 11:19:30;;;;;;;7.90;3.50;;;;;;;;;;5045073;28;20501;-81
2023/08/14 11:21:56;;;;;;;3.20;2.87;;;;;;;;;;5043411;28;20521;-81
2023/08/14 11:24:23;;;;;;;6.50;2.50;;;;;;;;;;5044809;28;20453;-81
2023/08/14 11:26:50;;;;;;;3.90;2.80;;;;;;;;;;5045463;28;21017;-81
2023/08/14 11:29:18;;;;;;;11.03;3.47;;;;;;;;;;5043702;28;20514;-81
2023/08/14 11:31:45;;;;;;;7.43;2.60;;;;;;;;;;5042766;28;20468;-80
2023/08/14 11:34:11;;;;;;;5.70;3.00;;;;;;;;;;5040053;28;20491;-81
2023/08/14 11:36:40;;;;;;;8.73;3.20;;;;;;;;;;5042913;28;20468;-81
2023/08/14 11:39:07;;;;;;;7.93;3.97;;;;;;;;;;5040981;28;20467;-81
2023/08/14 11:41:34;;;;;;;5.43;2.80;;;;;;;;;;5043652;28;20468;-81
2023/08/14 11:44:00;;;;;;;5.70;3.20;;;;;;;;;;5041465;28;20825;-81
2023/08/14 11:46:28;;;;;;;6.40;2.77;;;;;;;;;;5043982;28;20483;-81
2023/08/14 11:48:54;;;;;;;4.37;2.13;;;;;;;;;;5041318;28;20455;-81
2023/08/14 11:51:21;;;;;;;5.57;3.20;;;;;;;;;;5046508;28;20472;-81
2023/08/14 11:53:48;;;;;;;4.40;2.60;;;;;;;;;;5042321;28;21059;-81
2023/08/14 11:56:15;;;;;;;4.60;2.27;;;;;;;;;;5039977;28;20548;-81
2023/08/14 11:58:41;;;;;;;6.83;3.57;;;;;;;;;;5048341;28;20965;-81
2023/08/14 12:01:08;;;;;;;4.57;2.67;;;;;;;;;;5041757;28;20479;-81
2023/08/14 12:03:35;;;;;;;7.17;2.33;;;;;;;;;;5042088;28;21063;-82
2023/08/14 12:06:04;;;;;;;6.30;3.03;;;;;;;;;;5042632;28;20480;-81
2023/08/14 12:08:31;;;;;;;10.10;3.40;;;;;;;;;;5043466;28;20447;-81
2023/08/14 12:10:57;;;;;;;4.80;3.50;;;;;;;;;;5041353;28;20478;-81
2023/08/14 12:13:23;;;;;;;4.10;2.67;;;;;;;;;;5041868;28;20481;-81
2023/08/14 12:15:49;;;;;;;7.23;4.13;;;;;;;;;;5043788;28;20471;-81
2023/08/14 12:18:21;;;;;;;8.33;2.80;;;;;;;;;;5042549;28;20228;-81
2023/08/14 12:20:52;;;;;;;7.60;3.40;;;;;;;;;;5043497;28;20522;-80
2023/08/14 12:23:21;;;;;;;6.13;3.20;;;;;;;;;;5045424;28;20463;-81
2023/08/14 12:25:48;;;;;;;7.30;3.50;;;;;;;;;;5044919;28;20865;-81
2023/08/14 12:28:14;;;;;;;7.43;3.00;;;;;;;;;;5045398;28;20444;-80
2023/08/14 12:30:41;;;;;;;6.87;3.30;;;;;;;;;;5044516;28;20476;-81
2023/08/14 12:33:07;;;;;;;5.80;3.17;;;;;;;;;;5027801;28;20489;-81
2023/08/14 12:35:35;;;;;;;6.00;3.27;;;;;;;;;;5046472;28;20464;-81
2023/08/14 12:38:03;;;;;;;7.97;3.33;;;;;;;;;;5048696;28;20531;-81
2023/08/14 12:40:29;;;;;;;6.27;3.87;;;;;;;;;;5047013;28;20463;-81
2023/08/14 12:42:55;;;;;;;7.90;3.80;;;;;;;;;;5047372;28;20470;-81
2023/08/14 12:45:22;;;;;;;7.27;3.50;;;;;;;;;;5045498;28;20476;-81
2023/08/14 12:47:48;;;;;;;6.80;3.67;;;;;;;;;;5045726;28;20523;-81
2023/08/14 12:50:16;;;;;;;9.33;3.57;;;;;;;;;;5046691;28;20467;-81
2023/08/14 12:52:42;;;;;;;7.63;3.57;;;;;;;;;;5047091;28;20488;-81
2023/08/14 12:55:14;;;;;;;5.77;4.50;;;;;;;;;;5045317;28;20463;-81
2023/08/14 12:57:40;;;;;;;7.03;3.40;;;;;;;;;;5042166;28;20509;-80
2023/08/14 13:00:08;;;;;;;3.73;3.10;;;;;;;;;;5045710;28;20837;-80
2023/08/14 13:02:35;;;;;;;7.10;3.60;;;;;;;;;;5043421;28;20534;-81
2023/08/14 13:05:02;;;;;;;7.60;3.90;;;;;;;;;;5046775;28;20468;-81
2023/08/14 13:07:29;;;;;;;5.43;3.60;;;;;;;;;;5041503;28;20905;-81
2023/08/14 13:09:56;;;;;;;9.97;3.40;;;;;;;;;;5043594;28;20467;-81
2023/08/14 13:12:24;;;;;;;7.50;4.00;;;;;;;;;;5044765;28;20476;-80
2023/08/14 13:14:51;;;;;;;10.50;4.07;;;;;;;;;;5043842;28;20460;-80
2023/08/14 13:17:17;;;;;;;11.80;4.07;;;;;;;;;;5044456;28;20479;-80
2023/08/14 13:19:43;;;;;;;6.30;3.03;;;;;;;;;;5043515;28;20455;-81
2023/08/14 13:22:10;;;;;;;7.00;3.63;;;;;;;;;;5042082;28;20476;-80
2023/08/14 13:24:36;;;;;;;6.83;3.20;;;;;;;;;;5045116;28;20474;-80
2023/08/14 13:27:02;;;;;;;6.93;3.17;;;;;;;;;;5044419;28;20845;-80
2023/08/14 13:29:30;;;;;;;5.87;3.73;;;;;;;;;;5047752;28;20441;-81
2023/08/14 13:31:57;;;;;;;8.67;3.00;;;;;;;;;;5044140;28;20469;-81
2023/08/14 13:34:23;;;;;;;4.73;3.20;;;;;;;;;;5044284;28;20467;-80
2023/08/14 13:36:49;;;;;;;6.13;3.50;;;;;;;;;;5043191;28;21029;-81
2023/08/14 13:39:17;;;;;;;4.57;3.20;;;;;;;;;;5044655;28;20468;-80
2023/08/14 13:41:44;;;;;;;8.00;4.07;;;;;;;;;;5046297;28;20488;-80
2023/08/14 13:44:11;;;;;;;7.73;3.33;;;;;;;;;;5043683;28;20465;-81
2023/08/14 13:46:39;;;;;;;6.33;2.87;;;;;;;;;;5041190;28;20474;-81
2023/08/14 13:49:06;;;;;;;5.93;3.03;;;;;;;;;;5045890;28;20457;-81
2023/08/14 13:51:33;;;;;;;6.60;3.73;;;;;;;;;;5045394;28;20476;-80
2023/08/14 13:53:59;;;;;;;7.97;3.73;;;;;;;;;;5046894;28;20874;-81
2023/08/14 13:56:28;;;;;;;8.90;3.87;;;;;;;;;;5045301;28;20488;-80
2023/08/14 13:58:54;;;;;;;5.83;3.33;;;;;;;;;;5042368;28;20455;-81
2023/08/14 14:01:21;;;;;;;4.43;3.33;;;;;;;;;;5045223;28;20507;-80
2023/08/14 14:03:49;;;;;;;11.20;3.40;;;;;;;;;;5045519;28;20767;-81
2023/08/14 14:06:15;;;;;;;6.63;3.13;;;;;;;;;;5047879;28;20480;-81
2023/08/14 14:08:41;;;;;;;3.90;3.10;;;;;;;;;;5042073;28;20451;-81
2023/08/14 14:11:08;;;;;;;7.17;3.30;;;;;;;;;;5043414;28;20688;-81
2023/08/14 14:13:34;;;;;;;9.00;3.93;;;;;;;;;;5044871;28;20492;-81
2023/08/14 14:16:00;;;;;;;6.10;3.63;;;;;;;;;;5045349;28;20460;-80
2023/08/14 14:18:27;;;;;;;5.27;3.10;;;;;;;;;;5043001;28;20452;-80
2023/08/14 14:20:54;;;;;;;3.90;3.10;;;;;;;;;;5045387;28;20475;-80
2023/08/14 14:23:21;;;;;;;7.50;3.20;;;;;;;;;;5042908;28;20456;-80
2023/08/14 14:25:47;;;;;;;9.13;3.67;;;;;;;;;;5041983;28;21014;-80
2023/08/14 14:28:15;;;;;;;7.20;3.23;;;;;;;;;;5044869;28;20461;-80
2023/08/14 14:30:42;;;;;;;7.63;3.87;;;;;;;;;;5045165;28;20463;-80
2023/08/14 14:33:08;;;;;;;10.90;3.73;;;;;;;;;;5041698;28;20492;-80
2023/08/14 14:35:34;;;;;;;4.43;3.10;;;;;;;;;;5045524;28;20472;-81
2023/08/14 14:38:02;;;;;;;9.47;3.80;;;;;;;;;;5046176;28;20464;-81
2023/08/14 14:40:28;;;;;;;4.80;3.37;;;;;;;;;;5044282;28;20486;-80
2023/08/14 14:42:56;;;;;;;9.00;4.50;;;;;;;;;;5046437;28;20482;-81